createdAt,value
2022-08-17T00:00:07.004Z,99353.00
2022-08-17T00:02:38.308Z,99379.13
2022-08-17T00:04:50.336Z,99377.53
2022-08-17T00:06:52.667Z,99354.91
2022-08-17T00:08:59.485Z,99383.97
2022-08-17T00:11:07.118Z,99381.06
2022-08-17T00:13:21.848Z,99378.25
2022-08-17T00:15:24.922Z,99366.47
2022-08-17T00:17:27.173Z,99349.75
2022-08-17T00:19:29.875Z,99371.69
2022-08-17T00:22:29.621Z,99360.16
2022-08-17T00:23:56.517Z,99364.84
2022-08-17T00:25:58.960Z,99368.59
2022-08-17T00:28:01.278Z,99387.16
2022-08-17T00:30:06.732Z,99381.25
2022-08-17T00:33:12.501Z,99364.59
2022-08-17T00:34:30.817Z,99375.09
2022-08-17T00:36:34.449Z,99377.81
2022-08-17T00:38:37.048Z,99385.78
2022-08-17T00:40:50.436Z,99376.09
2022-08-17T00:42:54.137Z,99375.91
2022-08-17T00:44:56.252Z,99371.38
2022-08-17T00:46:58.381Z,99372.97
2022-08-17T00:49:00.832Z,99381.59
2022-08-17T00:51:09.173Z,99378.56
2022-08-17T00:53:12.021Z,99378.97
2022-08-17T00:55:14.532Z,99367.53
2022-08-17T00:57:41.428Z,99361.63
2022-08-17T01:00:02.109Z,99379.13
2022-08-17T01:02:09.931Z,99359.19
2022-08-17T01:04:13.856Z,99379.13
2022-08-17T01:06:16.089Z,99374.06
2022-08-17T01:08:22.272Z,99375.28
2022-08-17T01:10:59.609Z,99374.22
2022-08-17T01:13:06.200Z,99375.13
2022-08-17T01:15:08.904Z,99378.97
2022-08-17T01:17:11.229Z,99375.44
2022-08-17T01:19:19.462Z,99368.97
2022-08-17T01:21:34.145Z,99383.56
2022-08-17T01:23:36.920Z,99379.28
2022-08-17T01:25:40.308Z,99363.91
2022-08-17T01:27:43.067Z,99372.88
2022-08-17T01:29:50.425Z,99368.28
2022-08-17T01:32:01.101Z,99355.78
2022-08-17T01:34:08.713Z,99374.88
2022-08-17T01:36:10.847Z,99365.09
2022-08-17T01:38:13.012Z,99375.22
2022-08-17T01:40:23.169Z,99369.91
2022-08-17T01:42:43.873Z,99361.94
2022-08-17T01:44:45.915Z,99358.78
2022-08-17T01:46:48.102Z,99361.28
2022-08-17T01:48:50.453Z,99359.91
2022-08-17T01:50:52.517Z,99364.75
2022-08-17T01:53:03.533Z,99366.88
2022-08-17T01:55:07.111Z,99347.75
2022-08-17T01:57:09.614Z,99366.41
2022-08-17T01:59:12.829Z,99361.28
2022-08-17T02:01:23.744Z,99367.81
2022-08-17T02:03:26.172Z,99368.41
2022-08-17T02:05:28.550Z,99371.66
2022-08-17T02:07:30.687Z,99363.63
2022-08-17T02:09:32.846Z,99354.84
2022-08-17T02:11:37.541Z,99366.38
2022-08-17T02:13:39.627Z,99362.97
2022-08-17T02:15:41.687Z,99356.84
2022-08-17T02:17:44.601Z,99348.06
2022-08-17T02:19:46.625Z,99351.59
2022-08-17T02:21:52.501Z,99364.06
2022-08-17T02:23:56.017Z,99358.63
2022-08-17T02:25:59.971Z,99366.53
2022-08-17T02:28:03.423Z,99376.38
2022-08-17T02:31:02.253Z,99368.19
2022-08-17T02:32:33.032Z,99363.91
2022-08-17T02:34:35.017Z,99351.69
2022-08-17T02:36:37.938Z,99358.22
2022-08-17T02:38:41.782Z,99364.53
2022-08-17T02:40:43.870Z,99347.38
2022-08-17T02:42:47.910Z,99358.69
2022-08-17T02:44:50.012Z,99352.16
2022-08-17T02:46:51.973Z,99345.84
2022-08-17T02:48:54.295Z,99361.81
2022-08-17T02:50:56.246Z,99352.41
2022-08-17T02:53:01.665Z,99366.69
2022-08-17T02:55:11.682Z,99369.34
2022-08-17T02:57:13.992Z,99372.09
2022-08-17T02:59:16.130Z,99365.84
2022-08-17T03:01:18.429Z,99353.81
2022-08-17T03:03:20.453Z,99358.22
2022-08-17T03:05:26.498Z,99345.72
2022-08-17T03:07:28.909Z,99363.66
2022-08-17T03:09:31.586Z,99357.28
2022-08-17T03:11:33.736Z,99380.72
2022-08-17T03:13:36.575Z,99368.09
2022-08-17T03:15:38.704Z,99377.22
2022-08-17T03:17:46.373Z,99359.69
2022-08-17T03:19:48.641Z,99372.84
2022-08-17T03:21:55.388Z,99370.69
2022-08-17T03:23:57.571Z,99364.81
2022-08-17T03:26:00.243Z,99386.72
2022-08-17T03:28:04.679Z,99383.69
2022-08-17T03:30:09.307Z,99367.44
2022-08-17T03:32:16.872Z,99389.56
2022-08-17T03:34:18.921Z,99375.91
2022-08-17T03:36:20.943Z,99389.69
2022-08-17T03:38:23.458Z,99384.66
2022-08-17T03:40:55.089Z,99369.31
2022-08-17T03:42:48.810Z,99384.88
2022-08-17T03:44:53.093Z,99385.19
2022-08-17T03:46:59.798Z,99388.56
2022-08-17T03:49:07.972Z,99383.34
2022-08-17T03:51:23.321Z,99366.94
2022-08-17T03:53:25.400Z,99365.91
2022-08-17T03:55:30.772Z,99373.81
2022-08-17T03:57:38.599Z,99390.19
2022-08-17T03:59:41.163Z,99397.59
2022-08-17T04:01:46.660Z,99398.97
2022-08-17T04:03:48.920Z,99398.00
2022-08-17T04:05:50.914Z,99392.59
2022-08-17T04:07:52.947Z,99384.13
2022-08-17T04:09:55.440Z,99407.13
2022-08-17T04:11:57.551Z,99396.28
2022-08-17T04:14:07.248Z,99413.81
2022-08-17T04:16:09.667Z,99414.78
2022-08-17T04:18:11.731Z,99393.56
2022-08-17T04:20:16.831Z,99409.06
2022-08-17T04:22:32.068Z,99399.56
2022-08-17T04:24:35.927Z,99403.28
2022-08-17T04:26:52.667Z,99391.16
2022-08-17T04:28:57.697Z,99409.81
2022-08-17T04:30:59.791Z,99412.44
2022-08-17T04:33:13.045Z,99424.97
2022-08-17T04:35:25.480Z,99410.06
2022-08-17T04:37:27.531Z,99425.84
2022-08-17T04:39:29.525Z,99424.00
2022-08-17T04:41:31.831Z,99412.41
2022-08-17T04:43:35.872Z,99435.66
2022-08-17T04:45:55.496Z,99425.25
2022-08-17T04:48:00.223Z,99435.28
2022-08-17T04:50:02.189Z,99436.38
2022-08-17T04:52:04.888Z,99420.47
2022-08-17T04:54:15.063Z,99433.59
2022-08-17T04:56:18.304Z,99424.69
2022-08-17T04:58:21.463Z,99430.75
2022-08-17T05:00:24.272Z,99434.00
2022-08-17T05:02:26.231Z,99433.84
2022-08-17T05:04:33.910Z,99435.59
2022-08-17T05:06:37.805Z,99421.38
2022-08-17T05:08:40.048Z,99436.94
2022-08-17T05:10:45.542Z,99439.91
2022-08-17T05:12:48.196Z,99439.91
2022-08-17T05:14:50.251Z,99425.69
2022-08-17T05:16:52.295Z,99446.63
2022-08-17T05:18:55.633Z,99445.97
2022-08-17T05:20:58.149Z,99447.66
2022-08-17T05:23:04.443Z,99439.88
2022-08-17T05:25:07.184Z,99435.00
2022-08-17T05:27:09.291Z,99442.88
2022-08-17T05:29:11.331Z,99448.19
2022-08-17T05:31:14.431Z,99447.44
2022-08-17T05:33:24.663Z,99432.69
2022-08-17T05:35:29.688Z,99447.31
2022-08-17T05:37:32.233Z,99444.69
2022-08-17T05:39:34.668Z,99431.94
2022-08-17T05:41:36.743Z,99445.81
2022-08-17T05:43:42.223Z,99431.97
2022-08-17T05:46:04.808Z,99425.31
2022-08-17T05:48:09.049Z,99453.91
2022-08-17T05:50:42.079Z,99432.25
2022-08-17T05:53:06.648Z,99453.13
2022-08-17T05:55:30.441Z,99457.53
2022-08-17T05:57:53.877Z,99460.91
2022-08-17T06:00:20.194Z,99461.19
2022-08-17T06:02:37.810Z,99462.03
2022-08-17T06:05:09.105Z,99462.53
2022-08-17T06:07:37.247Z,99460.31
2022-08-17T06:10:21.584Z,99471.97
2022-08-17T06:13:27.300Z,99450.28
2022-08-17T06:15:59.058Z,99447.41
2022-08-17T06:18:10.013Z,99455.72
2022-08-17T06:20:17.719Z,99468.75
2022-08-17T06:22:32.673Z,99467.28
2022-08-17T06:24:52.304Z,99463.72
2022-08-17T06:26:59.641Z,99462.88
2022-08-17T06:29:18.693Z,99466.81
2022-08-17T06:32:12.666Z,99460.72
2022-08-17T06:34:15.878Z,99457.69
2022-08-17T06:36:46.905Z,99470.50
2022-08-17T06:39:39.231Z,99475.25
2022-08-17T06:43:04.105Z,99474.72
2022-08-17T06:45:42.946Z,99460.06
2022-08-17T06:48:05.198Z,99482.25
2022-08-17T06:53:36.005Z,99478.41
2022-08-17T06:56:02.902Z,99477.53
2022-08-17T06:58:16.186Z,99463.06
2022-08-17T07:00:44.881Z,99476.41
2022-08-17T07:03:21.066Z,99479.19
2022-08-17T07:05:47.179Z,99464.75
2022-08-17T07:08:34.862Z,99465.88
2022-08-17T07:10:47.891Z,99476.97
2022-08-17T07:12:57.114Z,99466.97
2022-08-17T07:15:27.546Z,99473.09
2022-08-17T07:17:46.813Z,99460.84
2022-08-17T07:20:09.769Z,99478.84
2022-08-17T07:22:57.203Z,99472.47
2022-08-17T07:25:11.370Z,99483.03
2022-08-17T07:27:29.381Z,99486.28
2022-08-17T07:29:47.001Z,99485.13
2022-08-17T07:31:49.750Z,99484.28
2022-08-17T07:34:59.551Z,99484.56
2022-08-17T07:37:07.860Z,99467.00
2022-08-17T07:39:13.101Z,99455.88
2022-08-17T07:41:20.441Z,99485.06
2022-08-17T07:43:39.761Z,99481.25
2022-08-17T07:46:11.230Z,99487.09
2022-08-17T07:48:21.260Z,99484.06
2022-08-17T07:50:29.611Z,99489.63
2022-08-17T07:52:51.998Z,99470.78
2022-08-17T07:54:54.782Z,99482.19
2022-08-17T07:57:12.230Z,99491.66
2022-08-17T07:59:23.807Z,99490.56
2022-08-17T08:01:26.441Z,99486.16
2022-08-17T08:03:45.710Z,99493.63
2022-08-17T08:06:01.169Z,99484.75
2022-08-17T08:08:23.080Z,99473.09
2022-08-17T08:10:36.280Z,99500.88
2022-08-17T08:12:42.702Z,99493.03
2022-08-17T08:15:14.612Z,99499.66
2022-08-17T08:17:26.620Z,99487.47
2022-08-17T08:19:30.970Z,99495.50
2022-08-17T08:21:56.914Z,99503.03
2022-08-17T08:24:21.062Z,99496.13
2022-08-17T08:26:38.370Z,99502.50
2022-08-17T08:29:20.323Z,99498.91
2022-08-17T08:31:59.038Z,99505.28
2022-08-17T08:35:01.145Z,99503.88
2022-08-17T08:37:35.785Z,99500.31
2022-08-17T08:39:56.943Z,99500.16
2022-08-17T08:42:04.981Z,99494.03
2022-08-17T08:45:00.263Z,99495.16
2022-08-17T08:47:44.391Z,99500.94
2022-08-17T08:50:38.017Z,99500.31
2022-08-17T08:53:31.131Z,99501.75
2022-08-17T08:55:53.576Z,99498.25
2022-08-17T08:58:30.626Z,99494.97
2022-08-17T09:00:40.741Z,99498.06
2022-08-17T09:03:13.790Z,99501.00
2022-08-17T09:05:46.310Z,99498.00
2022-08-17T09:08:16.971Z,99489.28
2022-08-17T09:10:33.941Z,99489.56
2022-08-17T09:12:42.022Z,99484.66
2022-08-17T09:15:15.611Z,99465.34
2022-08-17T09:18:08.622Z,99481.13
2022-08-17T09:20:31.211Z,99469.00
2022-08-17T09:22:41.563Z,99493.28
2022-08-17T09:24:57.128Z,99471.72
2022-08-17T09:27:18.111Z,99493.28
2022-08-17T09:29:23.641Z,99487.75
2022-08-17T09:31:33.911Z,99464.69
2022-08-17T09:33:47.101Z,99482.09
2022-08-17T09:35:56.711Z,99476.78
2022-08-17T09:38:31.747Z,99480.03
2022-08-17T09:40:51.480Z,99481.44
2022-08-17T09:43:08.551Z,99479.31
2022-08-17T09:45:33.901Z,99482.25
2022-08-17T09:48:18.590Z,99483.63
2022-08-17T09:51:05.454Z,99478.69
2022-08-17T09:53:09.602Z,99464.75
2022-08-17T09:55:12.593Z,99471.69
2022-08-17T09:57:49.968Z,99460.34
2022-08-17T10:00:16.815Z,99468.25
2022-08-17T10:02:47.320Z,99480.94
2022-08-17T10:05:06.451Z,99470.25
2022-08-17T10:07:30.572Z,99473.94
2022-08-17T10:09:49.493Z,99472.97
2022-08-17T10:12:11.292Z,99477.91
2022-08-17T10:14:38.048Z,99471.41
2022-08-17T10:17:09.280Z,99463.25
2022-08-17T10:20:04.487Z,99458.69
2022-08-17T10:22:35.272Z,99465.91
2022-08-17T10:25:23.153Z,99477.81
2022-08-17T10:27:15.200Z,99478.94
2022-08-17T10:29:49.843Z,99473.72
2022-08-17T10:31:59.950Z,99477.06
2022-08-17T10:34:27.957Z,99485.38
2022-08-17T10:36:55.732Z,99485.38
2022-08-17T10:39:16.149Z,99481.41
2022-08-17T10:41:29.410Z,99481.38
2022-08-17T10:44:37.398Z,99485.81
2022-08-17T10:46:44.993Z,99491.31
2022-08-17T10:49:19.099Z,99478.94
2022-08-17T10:51:40.021Z,99486.91
2022-08-17T10:53:49.520Z,99477.91
2022-08-17T10:56:15.351Z,99494.09
2022-08-17T10:58:21.985Z,99485.19
2022-08-17T11:00:27.536Z,99487.00
2022-08-17T11:02:52.807Z,99486.66
2022-08-17T11:05:11.840Z,99488.75
2022-08-17T11:07:38.903Z,99484.06
2022-08-17T11:10:09.311Z,99494.53
2022-08-17T11:12:50.836Z,99490.34
2022-08-17T11:15:01.130Z,99479.81
2022-08-17T11:17:35.178Z,99486.41
2022-08-17T11:19:45.023Z,99486.56
2022-08-17T11:22:22.160Z,99487.59
2022-08-17T11:24:45.533Z,99480.81
2022-08-17T11:27:15.640Z,99485.84
2022-08-17T11:29:24.869Z,99475.59
2022-08-17T11:31:44.991Z,99486.44
2022-08-17T11:34:15.451Z,99487.28
2022-08-17T11:36:53.702Z,99484.47
2022-08-17T11:39:27.941Z,99475.88
2022-08-17T11:42:09.591Z,99458.41
2022-08-17T11:44:50.675Z,99464.22
2022-08-17T11:47:29.645Z,99470.31
2022-08-17T11:50:00.079Z,99477.25
2022-08-17T11:52:02.429Z,99471.75
2022-08-17T11:54:33.375Z,99465.94
2022-08-17T11:56:50.051Z,99462.84
2022-08-17T11:58:52.540Z,99453.41
2022-08-17T12:01:31.758Z,99439.75
2022-08-17T12:03:34.374Z,99455.34
2022-08-17T12:05:37.058Z,99429.84
2022-08-17T12:07:47.909Z,99454.22
2022-08-17T12:09:54.119Z,99449.81
2022-08-17T12:12:27.458Z,99438.41
2022-08-17T12:15:07.922Z,99438.66
2022-08-17T12:17:09.205Z,99447.00
2022-08-17T12:19:20.380Z,99427.28
2022-08-17T12:21:40.971Z,99447.53
2022-08-17T12:24:04.749Z,99447.25
2022-08-17T12:26:25.509Z,99448.59
2022-08-17T12:28:32.848Z,99434.63
2022-08-17T12:30:37.940Z,99439.50
2022-08-17T12:32:40.603Z,99448.88
2022-08-17T12:34:44.679Z,99425.78
2022-08-17T12:36:51.208Z,99438.03
2022-08-17T12:39:14.272Z,99441.94
2022-08-17T12:41:43.989Z,99425.72
2022-08-17T12:44:19.941Z,99439.66
2022-08-17T12:46:22.288Z,99421.94
2022-08-17T12:48:29.073Z,99424.19
2022-08-17T12:50:42.850Z,99420.28
2022-08-17T12:52:49.129Z,99420.28
2022-08-17T12:55:04.807Z,99415.19
2022-08-17T12:57:37.918Z,99418.41
2022-08-17T12:59:46.092Z,99440.69
2022-08-17T13:01:48.670Z,99427.09
2022-08-17T13:03:54.762Z,99427.84
2022-08-17T13:06:07.368Z,99436.16
2022-08-17T13:08:21.650Z,99420.97
2022-08-17T13:10:33.678Z,99421.31
2022-08-17T13:12:36.469Z,99416.41
2022-08-17T13:14:46.281Z,99425.56
2022-08-17T13:19:50.018Z,99408.13
2022-08-17T13:21:57.280Z,99424.03
2022-08-17T13:24:21.360Z,99424.91
2022-08-17T13:26:34.518Z,99426.13
2022-08-17T13:28:37.152Z,99429.03
2022-08-17T13:30:39.953Z,99417.03
2022-08-17T13:32:45.752Z,99427.94
2022-08-17T13:35:12.491Z,99423.47
2022-08-17T13:37:36.926Z,99424.88
2022-08-17T13:39:43.418Z,99414.66
2022-08-17T13:41:48.669Z,99422.63
2022-08-17T13:43:51.389Z,99426.19
2022-08-17T13:45:53.809Z,99421.28
2022-08-17T13:48:13.579Z,99424.81
2022-08-17T13:50:21.429Z,99399.66
2022-08-17T13:52:39.127Z,99420.06
2022-08-17T13:54:41.638Z,99410.94
2022-08-17T13:57:20.553Z,99398.78
2022-08-17T13:59:54.172Z,99419.06
2022-08-17T14:01:58.939Z,99426.28
2022-08-17T14:04:15.534Z,99418.66
2022-08-17T14:06:52.631Z,99423.44
2022-08-17T14:08:40.525Z,99412.13
2022-08-17T14:10:43.162Z,99410.97
2022-08-17T14:12:46.068Z,99392.56
2022-08-17T14:14:48.758Z,99409.47
2022-08-17T14:16:54.305Z,99400.03
2022-08-17T14:18:57.476Z,99409.88
2022-08-17T14:21:00.134Z,99417.69
2022-08-17T14:23:02.457Z,99403.31
2022-08-17T14:25:06.274Z,99394.44
2022-08-17T14:27:13.296Z,99409.22
2022-08-17T14:29:15.807Z,99395.91
2022-08-17T14:31:18.014Z,99407.84
2022-08-17T14:33:20.771Z,99398.16
2022-08-17T14:35:23.665Z,99388.66
2022-08-17T14:37:29.264Z,99406.28
2022-08-17T14:39:31.823Z,99407.88
2022-08-17T14:41:34.434Z,99419.50
2022-08-17T14:43:38.464Z,99396.63
2022-08-17T14:45:41.546Z,99418.06
2022-08-17T14:47:43.995Z,99410.41
2022-08-17T14:49:47.684Z,99407.50
2022-08-17T14:51:50.365Z,99394.41
2022-08-17T14:53:52.616Z,99411.56
2022-08-17T14:55:54.885Z,99393.78
2022-08-17T14:57:57.496Z,99404.31
2022-08-17T15:00:00.471Z,99407.59
2022-08-17T15:02:03.774Z,99415.16
2022-08-17T15:04:06.247Z,99414.31
2022-08-17T15:06:09.656Z,99411.28
2022-08-17T15:08:12.384Z,99415.22
2022-08-17T15:10:16.104Z,99391.88
2022-08-17T15:12:22.978Z,99401.66
2022-08-17T15:14:25.154Z,99409.69
2022-08-17T15:16:47.086Z,99423.59
2022-08-17T15:19:06.839Z,99421.06
2022-08-17T15:21:09.605Z,99423.00
2022-08-17T15:23:17.925Z,99418.56
2022-08-17T15:25:20.074Z,99421.00
2022-08-17T15:27:31.504Z,99419.13
2022-08-17T15:29:35.258Z,99396.69
2022-08-17T15:31:39.498Z,99403.50
2022-08-17T15:33:41.799Z,99410.16
2022-08-17T15:35:45.015Z,99403.56
2022-08-17T15:37:47.192Z,99387.00
2022-08-17T15:39:49.642Z,99389.56
2022-08-17T15:41:58.132Z,99397.13
2022-08-17T15:44:01.026Z,99408.28
2022-08-17T15:46:20.997Z,99412.75
2022-08-17T15:48:23.808Z,99394.72
2022-08-17T15:50:26.515Z,99383.63
2022-08-17T15:52:29.226Z,99398.56
2022-08-17T15:54:34.592Z,99383.78
2022-08-17T15:56:39.426Z,99410.63
2022-08-17T15:58:44.295Z,99411.56
2022-08-17T16:00:53.146Z,99390.75
2022-08-17T16:03:47.027Z,99402.63
2022-08-17T16:05:32.124Z,99397.41
2022-08-17T16:07:34.617Z,99401.38
2022-08-17T16:09:36.965Z,99411.72
2022-08-17T16:11:39.148Z,99414.28
2022-08-17T16:13:54.870Z,99420.03
2022-08-17T16:15:58.534Z,99415.78
2022-08-17T16:18:00.722Z,99421.59
2022-08-17T16:22:48.806Z,99403.47
2022-08-17T16:34:51.615Z,99420.88
2022-08-17T16:39:28.120Z,99427.91
2022-08-17T16:41:34.444Z,99432.22
2022-08-17T16:43:36.616Z,99420.50
2022-08-17T16:46:04.704Z,99423.63
2022-08-17T17:01:49.483Z,99422.44
2022-08-17T17:03:58.231Z,99420.28
2022-08-17T17:06:15.505Z,99411.44
2022-08-17T17:08:26.774Z,99420.06
2022-08-17T17:10:48.684Z,99418.53
2022-08-17T17:13:03.840Z,99427.88
2022-08-17T17:15:07.700Z,99424.78
2022-08-17T17:17:21.705Z,99427.53
2022-08-17T17:19:39.516Z,99441.53
2022-08-17T17:22:10.904Z,99436.03
2022-08-17T17:24:33.067Z,99438.53
2022-08-17T17:27:14.045Z,99436.38
2022-08-17T17:29:16.534Z,99441.38
2022-08-17T17:31:23.144Z,99445.56
2022-08-17T17:33:48.578Z,99448.66
2022-08-17T17:35:57.015Z,99446.41
2022-08-17T17:38:12.443Z,99433.66
2022-08-17T17:40:22.811Z,99430.34
2022-08-17T17:42:30.056Z,99428.09
2022-08-17T17:44:42.714Z,99446.53
2022-08-17T17:46:55.975Z,99430.94
2022-08-17T17:48:58.595Z,99445.22
2022-08-17T17:52:02.863Z,99434.78
2022-08-17T17:54:16.236Z,99434.56
2022-08-17T17:57:01.714Z,99437.44
2022-08-17T17:59:13.071Z,99439.16
2022-08-17T18:01:31.667Z,99441.53
2022-08-17T18:04:20.281Z,99430.59
2022-08-17T18:06:42.104Z,99445.88
2022-08-17T18:09:10.190Z,99438.84
2022-08-17T18:11:51.408Z,99443.94
2022-08-17T18:14:46.636Z,99453.00
2022-08-17T18:17:04.295Z,99436.47
2022-08-17T18:19:19.375Z,99433.66
2022-08-17T18:21:36.465Z,99444.56
2022-08-17T18:23:47.216Z,99442.59
2022-08-17T18:26:13.304Z,99446.03
2022-08-17T18:28:36.968Z,99444.84
2022-08-17T18:30:39.186Z,99429.59
2022-08-17T18:32:50.734Z,99425.50
2022-08-17T18:53:33.931Z,99461.75
2022-08-17T18:55:41.734Z,99457.88
2022-08-17T18:57:57.442Z,99469.66
2022-08-17T19:00:13.464Z,99457.34
2022-08-17T19:02:45.118Z,99452.06
2022-08-17T19:05:36.976Z,99449.53
2022-08-17T19:07:47.944Z,99446.66
2022-08-17T19:10:21.645Z,99449.16
2022-08-17T19:12:42.261Z,99440.34
2022-08-17T19:14:49.212Z,99456.78
2022-08-17T19:20:03.799Z,99459.41
2022-08-17T19:22:30.924Z,99463.59
2022-08-17T19:24:35.254Z,99465.34
2022-08-17T19:27:02.024Z,99460.91
2022-08-17T19:29:50.837Z,99443.13
2022-08-17T19:31:59.098Z,99451.00
2022-08-17T19:34:02.855Z,99463.84
2022-08-17T19:36:23.505Z,99471.84
2022-08-17T19:38:56.414Z,99471.47
2022-08-17T19:41:21.641Z,99457.00
2022-08-17T19:44:05.702Z,99459.06
2022-08-17T19:46:49.849Z,99477.50
2022-08-17T19:49:15.095Z,99488.59
2022-08-17T19:51:49.374Z,99483.06
2022-08-17T19:54:34.097Z,99466.88
2022-08-17T19:56:56.986Z,99487.38
2022-08-17T19:59:16.236Z,99485.25
2022-08-17T20:01:52.608Z,99480.44
2022-08-17T20:04:45.069Z,99492.41
2022-08-17T20:06:50.437Z,99470.50
2022-08-17T20:09:24.382Z,99469.47
2022-08-17T20:12:00.696Z,99472.22
2022-08-17T20:14:17.079Z,99483.78
2022-08-17T20:16:20.565Z,99479.63
2022-08-17T20:18:44.018Z,99496.84
2022-08-17T20:21:01.764Z,99490.41
2022-08-17T20:23:33.436Z,99466.91
2022-08-17T20:25:59.295Z,99470.72
2022-08-17T20:28:35.347Z,99488.84
2022-08-17T20:30:42.805Z,99486.78
2022-08-17T20:33:00.376Z,99496.44
2022-08-17T20:35:22.632Z,99481.13
2022-08-17T20:37:31.629Z,99484.28
2022-08-17T20:39:37.662Z,99480.94
2022-08-17T20:42:24.245Z,99466.63
2022-08-17T20:44:47.427Z,99483.47
2022-08-17T20:47:15.577Z,99472.31
2022-08-17T20:49:27.951Z,99473.78
2022-08-17T20:52:01.142Z,99464.56
2022-08-17T20:54:27.614Z,99444.78
2022-08-17T20:56:46.758Z,99475.91
2022-08-17T21:00:00.289Z,99453.66
2022-08-17T21:02:18.590Z,99477.00
2022-08-17T21:04:50.654Z,99470.94
2022-08-17T21:07:41.032Z,99468.44
2022-08-17T21:09:46.548Z,99457.97
2022-08-17T21:12:04.435Z,99466.41
2022-08-17T21:14:26.733Z,99467.91
2022-08-17T21:17:02.359Z,99462.00
2022-08-17T21:19:54.202Z,99463.88
2022-08-17T21:22:28.042Z,99466.38
2022-08-17T21:25:01.654Z,99460.94
2022-08-17T21:27:31.827Z,99457.53
2022-08-17T21:29:40.309Z,99451.44
2022-08-17T21:31:57.714Z,99460.47
2022-08-17T21:34:16.627Z,99462.56
2022-08-17T21:36:25.731Z,99462.56
2022-08-17T21:38:40.599Z,99465.09
2022-08-17T21:40:51.558Z,99449.59
2022-08-17T21:43:19.537Z,99458.81
2022-08-17T21:45:33.734Z,99465.97
2022-08-17T21:47:47.369Z,99457.97
2022-08-17T21:49:52.009Z,99461.97
2022-08-17T21:51:56.536Z,99441.59
2022-08-17T21:54:03.332Z,99460.28
2022-08-17T21:56:07.102Z,99451.03
2022-08-17T21:58:34.549Z,99469.09
2022-08-17T22:00:36.875Z,99456.91
2022-08-17T22:02:41.859Z,99460.06
2022-08-17T22:04:57.180Z,99474.34
2022-08-17T22:07:03.896Z,99467.81
2022-08-17T22:09:37.280Z,99470.53
2022-08-17T22:12:05.717Z,99475.38
2022-08-17T22:14:18.208Z,99478.75
2022-08-17T22:16:28.301Z,99483.56
2022-08-17T22:18:32.047Z,99468.22
2022-08-17T22:20:34.879Z,99474.13
2022-08-17T22:22:46.284Z,99480.41
2022-08-17T22:24:57.417Z,99485.63
2022-08-17T22:27:11.100Z,99485.44
2022-08-17T22:29:57.133Z,99480.59
2022-08-17T22:32:00.045Z,99481.00
2022-08-17T22:34:02.048Z,99482.84
2022-08-17T22:36:48.594Z,99485.31
2022-08-17T22:38:58.961Z,99497.25
2022-08-17T22:41:28.846Z,99489.91
2022-08-17T22:43:31.156Z,99486.91
2022-08-17T22:45:46.412Z,99483.47
2022-08-17T22:47:49.741Z,99494.59
2022-08-17T22:49:59.346Z,99479.25
2022-08-17T22:52:24.263Z,99502.63
2022-08-17T22:54:32.477Z,99491.50
2022-08-17T22:56:34.963Z,99498.44
2022-08-17T22:58:58.828Z,99501.59
2022-08-17T23:01:32.275Z,99502.78
2022-08-17T23:03:55.134Z,99508.78
2022-08-17T23:06:11.724Z,99506.50
2022-08-17T23:08:15.727Z,99491.34
2022-08-17T23:10:17.996Z,99497.84
2022-08-17T23:12:26.646Z,99496.56
2022-08-17T23:14:29.074Z,99492.56
2022-08-17T23:16:31.101Z,99505.56
2022-08-17T23:18:33.527Z,99515.44
2022-08-17T23:20:37.865Z,99517.56
2022-08-17T23:22:51.417Z,99516.75
2022-08-17T23:24:55.253Z,99511.94
2022-08-17T23:26:58.061Z,99521.78
2022-08-17T23:29:00.134Z,99516.75
2022-08-17T23:31:02.405Z,99505.41
2022-08-17T23:33:09.315Z,99502.50
2022-08-17T23:35:11.531Z,99517.59
2022-08-17T23:37:14.330Z,99524.03
2022-08-17T23:39:16.966Z,99524.81
2022-08-17T23:41:36.136Z,99522.78
2022-08-17T23:43:53.140Z,99511.91
2022-08-17T23:45:59.291Z,99529.84
2022-08-17T23:48:01.671Z,99522.84
2022-08-17T23:50:04.262Z,99512.91
2022-08-17T23:52:09.951Z,99500.06
2022-08-17T23:54:35.710Z,99516.47
2022-08-17T23:56:39.052Z,99510.88
2022-08-17T23:58:43.248Z,99496.75
